Time;durP1;ratioP1;P1;durP2;ratioP2;P2;SDS_P1;SDS_P2;PMS_P1;PMS_P2;Temp;Humidity;BMP_temperature;BMP_pressure;BME280_temperature;BME280_humidity;BME280_pressure;Samples;Min_cycle;Max_cycle;Signal;HPM_P1;HPM_P2
2022/05/17 00:02:04;;;;;;;4.25;1.90;;;;;;;15.26;77.26;102003.69;5056000;28;19912;-35
2022/05/17 00:04:29;;;;;;;4.10;2.08;;;;;;;15.25;77.70;102012.94;5055860;28;20064;-35
2022/05/17 00:06:54;;;;;;;;;;;;;;;15.47;74.84;102010.50;5056053;28;20112;-36
2022/05/17 00:09:20;;;;;;;4.87;1.80;;;;;;;15.22;77.09;102009.81;5056262;28;19958;-35
2022/05/17 00:11:47;;;;;;;5.78;2.05;;;;;;;15.16;78.16;102017.03;5055803;28;20274;-35
2022/05/17 00:14:13;;;;;;;2.95;1.73;;;;;;;15.02;77.70;101997.34;5055277;28;20425;-35
2022/05/17 00:16:41;;;;;;;5.57;2.17;;;;;;;14.99;78.52;101999.72;5055875;28;20473;-35
2022/05/17 00:19:08;;;;;;;5.93;2.08;;;;;;;15.04;77.45;101997.97;5055177;28;20032;-35
2022/05/17 00:21:34;;;;;;;3.35;1.55;;;;;;;14.98;78.27;101998.88;5056289;28;20021;-35
2022/05/17 00:23:59;;;;;;;;;;;;;;;15.24;75.68;101992.19;5055985;28;20070;-35
2022/05/17 00:26:25;;;;;;;4.67;1.80;;;;;;;15.00;77.98;101985.03;5055483;28;19913;-35
2022/05/17 00:28:51;;;;;;;;;;;;;;;15.24;75.54;101989.47;5055856;28;20025;-35
2022/05/17 00:31:16;;;;;;;4.03;1.80;;;;;;;15.01;78.25;101992.13;5056185;28;19924;-35
2022/05/17 00:33:41;;;;;;;;;;;;;;;15.23;75.90;101984.25;5055768;28;20465;-35
2022/05/17 00:36:07;;;;;;;6.30;1.93;;;;;;;15.00;78.25;101974.97;5054919;28;19913;-35
2022/05/17 00:38:32;;;;;;;;;;;;;;;15.19;75.67;101982.00;5055371;28;20044;-35
2022/05/17 00:40:57;;;;;;;6.55;2.10;;;;;;;14.96;78.85;101981.94;5055213;28;19909;-35
2022/05/17 00:46:59;;;;;;;5.15;2.30;;;;;;;15.01;78.41;101990.25;5055106;28;20048;-35
2022/05/17 00:49:31;;;;;;;5.03;1.90;;;;;;;15.02;79.48;101986.44;5054388;28;20041;-35
2022/05/17 00:52:01;;;;;;;4.85;1.85;;;;;;;14.85;79.62;101983.56;5054695;28;20028;-35
2022/05/17 00:54:28;;;;;;;5.07;1.88;;;;;;;14.89;79.96;101984.78;5054800;28;20021;-35
2022/05/17 00:57:23;;;;;;;5.72;2.35;;;;;;;14.92;79.28;101984.28;5054649;28;20086;-35
2022/05/17 00:59:49;;;;;;;5.40;2.08;;;;;;;14.79;79.21;101976.34;5055635;28;20103;-35
2022/05/17 01:02:15;;;;;;;5.35;2.15;;;;;;;14.87;79.89;101991.50;5054589;28;20048;-35
2022/05/17 01:04:41;;;;;;;;;;;;;;;15.06;77.63;101984.91;5054832;28;20478;-35
2022/05/17 01:07:17;;;;;;;6.22;2.15;;;;;;;14.71;79.85;101965.75;5055447;28;19908;-35
2022/05/17 01:09:42;;;;;;;4.57;2.13;;;;;;;14.84;80.16;101981.91;5055176;28;20358;-35
2022/05/17 01:12:08;;;;;;;;;;;;;;;15.03;77.57;101987.28;5055313;28;20033;-35
2022/05/17 01:17:16;;;;;;;4.15;2.30;;;;;;;14.64;81.06;101965.88;5055127;28;20055;-35
2022/05/17 01:19:42;;;;;;;;;;;;;;;14.91;79.10;101960.00;5054867;28;20104;-35
2022/05/17 01:22:08;;;;;;;4.40;2.10;;;;;;;14.75;81.26;101964.25;5054426;28;19923;-35
2022/05/17 01:24:34;;;;;;;;;;;;;;;14.96;78.66;101957.44;5054756;28;20028;-35
2022/05/17 01:27:09;;;;;;;5.73;2.00;;;;;;;14.85;81.16;101977.28;5054897;28;19919;-35
2022/05/17 01:29:40;;;;;;;7.43;2.30;;;;;;;14.79;81.25;101972.78;5054568;28;20286;-35
2022/05/17 01:32:09;;;;;;;6.50;2.30;;;;;;;14.78;81.58;101966.47;5054205;28;20347;-35
2022/05/17 01:34:35;;;;;;;6.45;2.35;;;;;;;14.82;81.75;101970.41;5053721;28;20039;-35
2022/05/17 01:37:00;;;;;;;;;;;;;;;15.03;79.03;101977.22;5055358;28;20033;-35
2022/05/17 01:39:26;;;;;;;6.95;2.90;;;;;;;14.90;80.51;101971.97;5052877;28;19960;-35
2022/05/17 01:41:51;;;;;;;7.97;2.65;;;;;;;14.96;81.13;101981.94;5054004;28;20044;-36
2022/05/17 01:44:17;;;;;;;;;;;;;;;15.16;78.66;101978.91;5054461;28;20043;-35
2022/05/17 01:46:43;;;;;;;6.73;2.93;;;;;;;15.04;81.07;101980.78;5054493;28;19909;-35
2022/05/17 01:49:08;;;;;;;8.38;3.03;;;;;;;15.01;81.00;101982.06;5053226;28;20062;-35
2022/05/17 01:51:33;;;;;;;;;;;;;;;15.21;79.16;101976.31;5054106;28;20079;-35
2022/05/17 01:53:59;;;;;;;7.43;2.43;;;;;;;15.06;80.68;101971.31;5054120;28;19908;-35
2022/05/17 01:56:24;;;;;;;7.07;2.57;;;;;;;15.09;81.24;101984.47;5052773;28;20283;-35
2022/05/17 01:58:49;;;;;;;5.30;2.58;;;;;;;15.09;81.02;101970.03;5053604;28;20283;-35
2022/05/17 02:01:15;;;;;;;;;;;;;;;15.25;79.25;101976.69;5054757;28;20065;-35
2022/05/17 02:03:40;;;;;;;7.07;2.85;;;;;;;15.09;80.50;101970.03;5054052;28;19935;-36
2022/05/17 02:06:06;;;;;;;;;;;;;;;15.25;79.59;101972.06;5053937;28;20037;-35
2022/05/17 02:08:32;;;;;;;4.75;2.42;;;;;;;15.06;81.49;101959.56;5053741;28;19967;-35
2022/05/17 02:10:58;;;;;;;6.72;2.90;;;;;;;15.15;80.17;101978.06;5053711;28;20454;-35
2022/05/17 02:13:23;;;;;;;;;;;;;;;15.30;78.61;101984.97;5054131;28;20346;-35
2022/05/17 02:15:48;;;;;;;4.57;2.58;;;;;;;15.17;79.49;101980.56;5053411;28;19923;-40
2022/05/17 02:18:13;;;;;;;;;;;;;;;15.33;78.55;101979.06;5053781;28;20087;-35
2022/05/17 02:20:39;;;;;;;6.93;2.87;;;;;;;15.20;80.57;101975.47;5053466;28;20353;-35
2022/05/17 02:23:07;;;;;;;8.70;2.90;;;;;;;15.16;80.87;101973.44;5053239;28;20715;-36
2022/05/17 02:25:33;;;;;;;8.52;3.40;;;;;;;15.16;81.27;101979.72;5053888;28;20329;-35
2022/05/17 02:27:59;;;;;;;5.85;2.70;;;;;;;15.18;81.73;101987.69;5053134;28;20059;-35
2022/05/17 02:30:24;;;;;;;;;;;;;;;15.34;79.40;101988.91;5053559;28;20060;-35
2022/05/17 02:32:49;;;;;;;6.77;2.90;;;;;;;15.20;80.54;101980.94;5052841;28;19913;-35
2022/05/17 02:35:15;;;;;;;4.10;2.50;;;;;;;15.17;81.10;101978.66;5052809;28;20283;-35
2022/05/17 02:37:40;;;;;;;6.75;2.85;;;;;;;15.19;80.91;101994.78;5053122;28;20252;-35
2022/05/17 02:40:06;;;;;;;;;;;;;;;15.34;79.13;101986.16;5053393;28;20025;-36
2022/05/17 02:42:32;;;;;;;8.60;3.22;;;;;;;15.18;80.40;101982.25;5052657;28;19963;-36
2022/05/17 02:44:57;;;;;;;7.57;3.03;;;;;;;15.16;80.80;101981.63;5053160;28;20024;-36
2022/05/17 02:47:22;;;;;;;;;;;;;;;15.33;78.89;101989.97;5053421;28;20028;-36
2022/05/17 02:49:47;;;;;;;7.10;2.90;;;;;;;15.22;80.61;101986.13;5052892;28;19915;-36
2022/05/17 02:52:13;;;;;;;;;;;;;;;15.34;78.88;101997.91;5053772;28;20035;-36
2022/05/17 02:54:39;;;;;;;8.70;3.85;;;;;;;15.22;80.40;101996.22;5052744;28;19935;-36
2022/05/17 02:57:06;;;;;;;11.02;3.30;;;;;;;15.00;80.68;101991.31;5053291;28;20075;-36
2022/05/17 02:59:31;;;;;;;9.80;3.30;;;;;;;14.98;81.00;102001.59;5052392;28;20104;-36
2022/05/17 03:01:56;;;;;;;;;;;;;;;15.19;78.92;101995.63;5053107;28;20111;-36
2022/05/17 03:04:22;;;;;;;8.07;3.15;;;;;;;14.94;81.63;101990.34;5053127;28;19920;-36
2022/05/17 03:06:47;;;;;;;5.32;3.20;;;;;;;14.91;81.88;101987.25;5052687;28;20033;-36
2022/05/17 03:09:13;;;;;;;;;;;;;;;15.11;79.62;101998.66;5053328;28;20382;-35
2022/05/17 03:11:43;;;;;;;6.65;2.95;;;;;;;14.80;80.54;101986.16;5052730;28;19998;-36
2022/05/17 03:14:10;;;;;;;6.57;3.42;;;;;;;14.87;81.92;101996.94;5052222;28;20108;-36
2022/05/17 03:16:35;;;;;;;8.27;3.53;;;;;;;14.82;81.39;102004.97;5052523;28;20052;-36
2022/05/17 03:19:01;;;;;;;;;;;;;;;15.00;79.68;102002.22;5053024;28;20041;-36
2022/05/17 03:21:27;;;;;;;6.00;3.22;;;;;;;14.79;81.87;102005.47;5052912;28;20297;-36
2022/05/17 03:23:52;;;;;;;;;;;;;;;14.97;79.50;101999.94;5052900;28;20029;-36
2022/05/17 03:26:18;;;;;;;9.45;3.28;;;;;;;14.77;82.13;101992.06;5052506;28;19913;-36
2022/05/17 03:28:43;;;;;;;5.93;2.97;;;;;;;14.80;83.03;102001.66;5052457;28;20086;-36
2022/05/17 03:31:10;;;;;;;7.25;3.50;;;;;;;14.76;83.33;101992.28;5053197;28;20033;-36
2022/05/17 03:33:36;;;;;;;8.65;3.28;;;;;;;14.71;83.34;102001.16;5052655;28;20036;-36
2022/05/17 03:36:02;;;;;;;7.38;3.80;;;;;;;14.71;83.44;102003.88;5053094;28;20160;-36
2022/05/17 03:38:27;;;;;;;;;;;;;;;14.90;81.10;101996.50;5053304;28;20378;-36
2022/05/17 03:40:54;;;;;;;6.75;3.25;;;;;;;14.66;83.79;102004.56;5052605;28;19931;-36
2022/05/17 03:43:20;;;;;;;7.50;3.22;;;;;;;14.56;84.48;101995.28;5052603;28;20037;-36
2022/05/17 03:45:45;;;;;;;;;;;;;;;14.85;81.80;102009.97;5053122;28;20037;-36
2022/05/17 03:48:10;;;;;;;11.88;3.40;;;;;;;14.61;83.77;102000.88;5052916;28;20007;-36
2022/05/17 03:50:36;;;;;;;;;;;;;;;14.82;81.44;102000.34;5053039;28;20057;-36
2022/05/17 03:53:02;;;;;;;5.47;3.27;;;;;;;14.64;83.67;101992.22;5052301;28;19916;-36
2022/05/17 03:55:27;;;;;;;;;;;;;;;14.82;81.43;102000.34;5052293;28;20031;-36
2022/05/17 03:57:52;;;;;;;8.57;3.55;;;;;;;14.67;83.79;101999.94;5052187;28;19912;-36
2022/05/17 04:00:18;;;;;;;9.07;3.83;;;;;;;14.64;83.39;101998.53;5052372;28;20029;-36
2022/05/17 04:02:43;;;;;;;7.72;3.58;;;;;;;14.69;83.89;101997.84;5052237;28;20279;-37
2022/05/17 04:05:10;;;;;;;8.82;3.60;;;;;;;14.63;84.19;101996.84;5052264;28;20078;-36
2022/05/17 04:07:35;;;;;;;9.32;3.20;;;;;;;14.69;84.65;102006.00;5052854;28;20370;-36
2022/05/17 04:10:00;;;;;;;;;;;;;;;14.86;82.24;102007.00;5052529;28;20021;-36
2022/05/17 04:12:26;;;;;;;9.40;4.03;;;;;;;14.71;84.58;102003.88;5052925;28;19912;-36
2022/05/17 04:14:53;;;;;;;;;;;;;;;14.90;81.95;102012.84;5056048;28;20021;-36
2022/05/17 04:17:18;;;;;;;7.40;3.53;;;;;;;14.80;84.48;102012.56;5056041;28;19916;-36
2022/05/17 04:19:43;;;;;;;5.43;3.20;;;;;;;14.75;83.99;102017.88;5056090;28;20310;-36
2022/05/17 04:22:11;;;;;;;7.68;3.80;;;;;;;14.78;84.81;102020.09;5055385;28;20749;-36
2022/05/17 04:24:37;;;;;;;7.63;3.55;;;;;;;14.77;84.67;102026.63;5056138;28;20120;-36
2022/05/17 04:27:02;;;;;;;;;;;;;;;14.96;82.55;102032.84;5055035;28;20123;-36
2022/05/17 04:29:28;;;;;;;7.40;3.30;;;;;;;14.82;84.51;102019.41;5055425;28;19908;-36
2022/05/17 04:31:53;;;;;;;;;;;;;;;15.02;82.37;102031.94;5056208;28;20025;-36
2022/05/17 04:34:18;;;;;;;9.47;3.83;;;;;;;14.99;83.52;102027.78;5055276;28;19909;-36
2022/05/17 04:36:46;;;;;;;;;;;;;;;15.10;82.32;102024.25;5056179;28;20017;-36
2022/05/17 04:39:11;;;;;;;8.90;3.85;;;;;;;15.04;83.06;102025.19;5055736;28;19912;-36
2022/05/17 04:41:37;;;;;;;5.85;3.25;;;;;;;15.06;84.12;102031.22;5055714;28;20036;-36
2022/05/17 04:44:02;;;;;;;;;;;;;;;15.14;82.60;102025.47;5055702;28;20112;-37
2022/05/17 04:46:28;;;;;;;6.03;3.15;;;;;;;15.04;83.43;102025.19;5055616;28;19920;-36
2022/05/17 04:48:53;;;;;;;;;;;;;;;15.19;81.84;102027.50;5055551;28;20060;-37
2022/05/17 04:51:18;;;;;;;8.60;3.83;;;;;;;15.04;83.72;102025.19;5054831;28;19931;-36
2022/05/17 04:53:44;;;;;;;7.03;3.47;;;;;;;15.12;83.30;102022.13;5055002;28;20031;-36
2022/05/17 04:56:10;;;;;;;;;;;;;;;15.29;82.19;102032.38;5055339;28;20025;-36
2022/05/17 04:58:35;;;;;;;7.88;3.70;;;;;;;15.23;83.05;102045.03;5054561;28;19959;-36
2022/05/17 05:01:02;;;;;;;6.10;4.07;;;;;;;15.24;83.32;102037.69;5054660;28;20033;-36
2022/05/17 05:03:28;;;;;;;9.43;4.07;;;;;;;15.19;82.88;102030.22;5054689;28;20472;-36
2022/05/17 05:05:53;;;;;;;9.40;3.60;;;;;;;15.28;83.26;102036.16;5054453;28;20029;-36
2022/05/17 05:08:19;;;;;;;;;;;;;;;15.47;81.87;102037.75;5055071;28;20044;-42
2022/05/17 05:10:45;;;;;;;10.27;3.67;;;;;;;15.38;82.39;102036.44;5054964;28;20015;-37
2022/05/17 05:13:17;;;;;;;8.30;4.13;;;;;;;15.43;83.21;102042.84;5055103;28;20271;-36
2022/05/17 05:15:42;;;;;;;6.05;3.55;;;;;;;15.49;82.54;102051.13;5054814;28;20082;-37
2022/05/17 05:18:07;;;;;;;;;;;;;;;15.65;81.29;102040.38;5055505;28;20588;-36
2022/05/17 05:20:34;;;;;;;6.70;3.33;;;;;;;15.63;81.61;102047.97;5054931;28;19919;-36
2022/05/17 05:23:00;;;;;;;6.82;3.50;;;;;;;15.58;81.20;102034.19;5054595;28;20454;-36
2022/05/17 05:25:25;;;;;;;;;;;;;;;15.80;80.66;102052.72;5053797;28;20055;-36
2022/05/17 05:27:51;;;;;;;9.93;3.70;;;;;;;15.82;81.24;102062.34;5054292;28;19924;-36
2022/05/17 05:30:18;;;;;;;9.60;3.78;;;;;;;15.81;81.81;102065.28;5054508;28;20353;-36
2022/05/17 05:32:46;;;;;;;10.75;4.00;;;;;;;15.87;80.93;102059.75;5054206;28;20418;-36
2022/05/17 05:35:14;;;;;;;8.68;3.80;;;;;;;15.89;80.41;102062.22;5054388;28;20423;-36
2022/05/17 05:37:40;;;;;;;7.50;4.47;;;;;;;15.91;80.35;102068.28;5054646;28;20031;-36
2022/05/17 05:40:06;;;;;;;;;;;;;;;16.09;79.69;102064.59;5055299;28;20028;-36
2022/05/17 05:42:32;;;;;;;8.77;3.85;;;;;;;16.04;79.10;102070.75;5052736;28;19919;-36
2022/05/17 05:44:57;;;;;;;;;;;;;;;16.17;79.05;102073.25;5054382;28;20029;-36
2022/05/17 05:47:22;;;;;;;6.20;4.60;;;;;;;16.08;78.92;102073.84;5053951;28;20306;-36
2022/05/17 05:49:48;;;;;;;11.73;4.20;;;;;;;16.11;79.01;102063.31;5054206;28;20682;-36
2022/05/17 05:52:13;;;;;;;;;;;;;;;16.25;78.49;102079.41;5055118;28;20040;-35
2022/05/17 05:54:38;;;;;;;9.93;3.95;;;;;;;16.07;79.26;102058.56;5053482;28;19936;-35
2022/05/17 05:57:04;;;;;;;;;;;;;;;16.33;79.27;102079.88;5053967;28;20178;-35
2022/05/17 05:59:30;;;;;;;8.98;4.65;;;;;;;16.18;79.95;102080.38;5053637;28;19999;-35
2022/05/17 06:01:57;;;;;;;11.57;4.28;;;;;;;16.25;79.76;102083.00;5053991;28;20118;-35
2022/05/17 06:04:22;;;;;;;6.18;4.10;;;;;;;16.26;80.17;102076.47;5053617;28;20021;-35
2022/05/17 06:06:47;;;;;;;;;;;;;;;16.40;79.01;102072.41;5052695;28;20488;-35
2022/05/17 06:09:13;;;;;;;6.00;4.00;;;;;;;16.30;79.41;102071.31;5053520;28;19912;-35
2022/05/17 06:11:38;;;;;;;8.52;4.15;;;;;;;16.27;79.56;102080.00;5053257;28;20279;-35
2022/05/17 06:14:04;;;;;;;;;;;;;;;16.40;78.99;102082.50;5053647;28;20029;-35
2022/05/17 06:16:29;;;;;;;10.82;4.40;;;;;;;16.27;80.51;102075.38;5053786;28;19923;-35
2022/05/17 06:18:54;;;;;;;;;;;;;;;16.44;79.32;102083.66;5054082;28;20037;-35
2022/05/17 06:21:19;;;;;;;10.48;4.35;;;;;;;16.31;81.53;102089.38;5053395;28;19924;-35
2022/05/17 06:23:45;;;;;;;;;;;;;;;16.43;79.78;102088.28;5054030;28;20060;-35
2022/05/17 06:26:10;;;;;;;11.55;4.30;;;;;;;16.30;81.60;102087.72;5053848;28;19913;-35
2022/05/17 06:28:36;;;;;;;;;;;;;;;16.43;79.48;102088.28;5053363;28;20363;-35
2022/05/17 06:31:01;;;;;;;12.80;4.47;;;;;;;16.35;81.35;102090.56;5053266;28;19916;-35
2022/05/17 06:33:27;;;;;;;10.52;4.50;;;;;;;16.41;80.85;102092.34;5053748;28;20037;-36
2022/05/17 06:35:53;;;;;;;;;;;;;;;16.55;79.58;102090.19;5053765;28;20036;-35
2022/05/17 06:38:18;;;;;;;8.60;4.30;;;;;;;16.44;81.06;102089.94;5053121;28;19938;-35
2022/05/17 06:40:44;;;;;;;8.73;4.20;;;;;;;16.46;81.34;102092.44;5052919;28;20355;-35
2022/05/17 06:43:10;;;;;;;;;;;;;;;16.58;80.00;102095.97;5053501;28;20422;-35
2022/05/17 06:45:37;;;;;;;8.50;4.00;;;;;;;16.45;81.12;102096.25;5053234;28;19916;-35
2022/05/17 06:48:02;;;;;;;7.95;3.45;;;;;;;16.51;80.31;102102.66;5052697;28;20033;-35
2022/05/17 06:50:28;;;;;;;;;;;;;;;16.61;79.34;102109.16;5053159;28;20556;-35
2022/05/17 06:52:54;;;;;;;9.27;4.25;;;;;;;16.50;81.69;102099.09;5052998;28;19913;-35
2022/05/17 06:55:19;;;;;;;;;;;;;;;16.63;80.01;102109.72;5053024;28;20025;-35
2022/05/17 06:57:44;;;;;;;9.30;4.13;;;;;;;16.53;82.95;102108.69;5053271;28;19919;-35
2022/05/17 07:00:11;;;;;;;;;;;;;;;16.63;80.33;102112.47;5053370;28;20036;-36
2022/05/17 07:02:37;;;;;;;15.68;4.82;;;;;;;16.50;83.91;102104.56;5052958;28;20261;-35
2022/05/17 07:05:04;;;;;;;11.43;5.28;;;;;;;16.54;84.69;102116.63;5052835;28;20039;-35
2022/05/17 07:07:29;;;;;;;9.73;4.60;;;;;;;16.51;85.28;102108.13;5053135;28;20488;-35
2022/05/17 07:15:22;;;;;;;10.85;5.03;;;;;;;16.62;84.52;102113.53;5052522;28;20124;-35
2022/05/17 07:17:47;;;;;;;;;;;;;;;16.77;82.84;102117.69;5053962;28;20450;-35
2022/05/17 07:20:14;;;;;;;8.10;4.85;;;;;;;16.66;85.91;102120.19;5052896;28;19912;-35
2022/05/17 07:22:40;;;;;;;9.05;5.20;;;;;;;16.68;84.80;102118.03;5052754;28;20033;-35
2022/05/17 07:25:06;;;;;;;10.10;5.07;;;;;;;16.61;84.79;102125.53;5052672;28;20032;-35
2022/05/17 07:27:32;;;;;;;13.43;5.38;;;;;;;16.64;85.36;102127.81;5052744;28;20037;-35
2022/05/17 07:29:57;;;;;;;;;;;;;;;16.79;83.64;102127.31;5053113;28;20047;-35
2022/05/17 07:32:23;;;;;;;9.60;4.87;;;;;;;16.65;85.24;102126.72;5052710;28;19958;-35
2022/05/17 07:34:48;;;;;;;;;;;;;;;16.78;83.01;102120.19;5052642;28;20088;-35
2022/05/17 07:37:14;;;;;;;8.17;4.70;;;;;;;16.67;86.15;102121.84;5052907;28;19913;-35
2022/05/17 07:39:39;;;;;;;;;;;;;;;16.76;83.79;102111.41;5052683;28;20025;-35
2022/05/17 07:42:06;;;;;;;8.53;4.97;;;;;;;16.62;87.22;102107.25;5052238;28;19919;-35
2022/05/17 07:44:32;;;;;;;13.48;5.40;;;;;;;16.42;88.02;102088.53;5052212;28;20275;-35
2022/05/17 07:46:58;;;;;;;9.07;5.50;;;;;;;16.67;87.75;102121.00;5052295;28;20032;-35
2022/05/17 07:49:23;;;;;;;;;;;;;;;16.80;85.34;102120.78;5056397;28;20028;-35
2022/05/17 07:51:48;;;;;;;9.73;5.23;;;;;;;16.68;88.69;102114.47;5056541;28;19912;-35
2022/05/17 07:54:14;;;;;;;;;;;;;;;16.83;85.28;102124.91;5056544;28;20276;-35
2022/05/17 07:56:39;;;;;;;12.00;5.82;;;;;;;16.70;88.94;102124.09;5056671;28;19969;-36
2022/05/17 07:59:05;;;;;;;;;;;;;;;16.84;86.26;102126.59;5056530;28;20102;-36
2022/05/17 08:01:30;;;;;;;9.18;5.80;;;;;;;16.75;88.97;102117.13;5056342;28;20376;-36
2022/05/17 08:03:55;;;;;;;;;;;;;;;16.91;85.82;102127.28;5056696;28;20025;-35
2022/05/17 08:06:21;;;;;;;10.13;5.72;;;;;;;16.93;87.27;102136.91;5056077;28;19923;-36
2022/05/17 08:08:46;;;;;;;;;;;;;;;17.06;86.09;102141.25;5056710;28;20025;-36
2022/05/17 08:11:11;;;;;;;9.23;5.77;;;;;;;17.07;86.93;102129.25;5055978;28;19971;-36
2022/05/17 08:13:37;;;;;;;;;;;;;;;17.26;85.23;102138.09;5056379;28;20079;-36
2022/05/17 08:16:03;;;;;;;8.48;5.35;;;;;;;17.23;85.97;102142.16;5056272;28;19913;-36
2022/05/17 08:18:29;;;;;;;9.88;5.80;;;;;;;17.33;86.49;102138.78;5055742;28;20094;-36
2022/05/17 08:20:54;;;;;;;;;;;;;;;17.41;85.21;102145.75;5056164;28;20428;-35
2022/05/17 08:23:19;;;;;;;9.57;4.78;;;;;;;17.29;85.44;102140.34;5056008;28;20000;-36
2022/05/17 08:28:28;;;;;;;10.80;4.00;;;;;;;17.31;84.49;102138.19;5055421;28;19943;-35
2022/05/17 08:30:54;;;;;;;;;;;;;;;17.47;83.34;102144.75;5056012;28;20427;-35
2022/05/17 08:33:20;;;;;;;8.20;3.73;;;;;;;17.42;82.68;102133.72;5055556;28;19920;-35
2022/05/17 08:35:55;;;;;;;6.15;3.40;;;;;;;17.36;81.02;102129.25;5056043;28;20271;-35
2022/05/17 08:38:33;;;;;;;8.27;3.67;;;;;;;17.45;81.05;102144.19;5055123;28;20037;-36
2022/05/17 08:41:17;;;;;;;8.55;3.42;;;;;;;17.40;81.68;102149.56;5055667;28;20113;-35
2022/05/17 08:43:51;;;;;;;7.15;3.58;;;;;;;17.35;82.39;102131.16;5056080;28;20405;-36
2022/05/17 08:46:35;;;;;;;8.48;4.07;;;;;;;17.46;81.94;102143.09;5055779;28;20025;-35
2022/05/17 08:49:31;;;;;;;7.20;3.47;;;;;;;17.47;81.49;102133.81;5055279;28;20036;-36
2022/05/17 08:52:11;;;;;;;7.97;3.40;;;;;;;17.35;82.07;102114.75;5055216;28;20029;-36
2022/05/17 08:54:39;;;;;;;8.35;4.10;;;;;;;17.40;82.16;102124.94;5055379;28;20037;-36
2022/05/17 08:57:30;;;;;;;10.93;4.32;;;;;;;17.40;83.18;102114.00;5055813;28;20036;-36
2022/05/17 08:59:59;;;;;;;7.50;4.35;;;;;;;17.34;82.34;102112.28;5054828;28;20111;-35
2022/05/17 09:02:41;;;;;;;8.18;4.40;;;;;;;17.38;82.96;102116.19;5055181;28;20028;-36
2022/05/17 09:05:26;;;;;;;9.02;4.57;;;;;;;17.48;83.56;102106.25;5055246;28;20044;-36
2022/05/17 09:08:09;;;;;;;9.00;4.07;;;;;;;17.57;82.16;102108.56;5055569;28;20116;-36
2022/05/17 09:10:50;;;;;;;8.02;4.53;;;;;;;17.67;81.39;102108.75;5053688;28;20489;-36
2022/05/17 09:13:38;;;;;;;7.88;4.50;;;;;;;17.66;79.84;102096.97;5055521;28;20028;-36
2022/05/17 09:16:05;;;;;;;9.82;4.25;;;;;;;17.65;79.86;102089.84;5045927;28;20497;-36
2022/05/17 09:18:31;;;;;;;10.63;3.95;;;;;;;17.90;79.59;102114.06;5055334;28;20049;-36
2022/05/17 09:20:56;;;;;;;;;;;;;;;18.07;79.84;102108.59;5054345;28;20142;-36
2022/05/17 09:23:22;;;;;;;7.47;2.90;;;;;;;18.18;78.73;102110.41;5054574;28;20039;-36
2022/05/17 09:25:47;;;;;;;;;;;;;;;18.32;76.63;102101.84;5055230;28;20465;-36
2022/05/17 09:28:17;;;;;;;6.67;2.20;;;;;;;18.28;75.09;102096.03;5054199;28;19928;-36
2022/05/17 09:30:43;;;;;;;4.88;1.80;;;;;;;18.33;74.84;102096.09;5054637;28;20750;-37
2022/05/17 09:33:15;;;;;;;;;;;;;;;18.47;75.02;102113.00;5054443;28;20029;-35
2022/05/17 09:35:53;;;;;;;6.72;2.05;;;;;;;18.43;73.43;102087.19;5054770;28;20019;-35
2022/05/17 09:38:18;;;;;;;8.20;2.80;;;;;;;18.54;72.37;102097.19;5054698;28;20108;-36
2022/05/17 09:40:45;;;;;;;;;;;;;;;18.80;73.83;102103.88;5054342;28;20052;-36
2022/05/17 09:43:12;;;;;;;5.97;2.33;;;;;;;18.86;73.10;102093.81;5054181;28;19909;-36
2022/05/17 09:46:00;;;;;;;6.55;2.78;;;;;;;19.02;75.12;102101.09;5054930;28;20465;-36
2022/05/17 09:52:32;;;;;;;5.90;2.80;;;;;;;19.35;73.28;102104.75;5054846;28;20025;-36
2022/05/17 09:54:32;;;;;;;7.40;2.85;;;;;;;19.98;71.19;102092.16;5054471;28;20039;-36
2022/05/17 09:57:25;;;;;;;7.88;3.53;;;;;;;20.20;71.61;102086.50;5053907;28;20032;-36
2022/05/17 09:59:54;;;;;;;7.97;2.45;;;;;;;20.46;68.44;102084.75;5046776;28;20421;-36
2022/05/17 10:02:34;;;;;;;6.97;2.88;;;;;;;20.84;67.44;102083.56;5054084;28;20035;-36
2022/05/17 10:05:14;;;;;;;4.72;2.58;;;;;;;21.04;67.04;102080.88;5053772;28;20029;-36
2022/05/17 10:07:41;;;;;;;8.65;2.90;;;;;;;21.19;65.30;102082.00;5054066;28;20043;-36
2022/05/17 10:10:21;;;;;;;6.28;3.40;;;;;;;21.34;66.46;102068.28;5053271;28;20375;-36
2022/05/17 10:12:51;;;;;;;5.55;2.83;;;;;;;21.48;65.71;102058.41;5054464;28;20450;-36
2022/05/17 10:15:19;;;;;;;6.80;2.72;;;;;;;21.49;64.98;102071.06;5053651;28;20025;-36
2022/05/17 10:17:55;;;;;;;8.10;2.90;;;;;;;21.53;64.70;102063.09;5053499;28;20068;-36
2022/05/17 10:20:37;;;;;;;7.53;2.72;;;;;;;21.41;62.48;102051.50;5053522;28;20029;-36
2022/05/17 10:23:25;;;;;;;9.85;2.47;;;;;;;21.36;62.61;102066.09;5053535;28;20478;-36
2022/05/17 10:26:00;;;;;;;5.60;2.55;;;;;;;21.28;62.43;102052.84;5052571;28;20036;-36
2022/05/17 10:28:38;;;;;;;4.75;2.40;;;;;;;21.35;64.25;102058.94;5053870;28;20120;-36
2022/05/17 10:31:11;;;;;;;6.25;2.70;;;;;;;21.41;62.42;102051.50;5053226;28;20036;-36
2022/05/17 10:33:48;;;;;;;6.80;2.40;;;;;;;21.45;61.97;102049.84;5054012;28;20037;-36
2022/05/17 10:36:39;;;;;;;5.03;2.70;;;;;;;21.52;63.46;102053.16;5053596;28;20036;-37
2022/05/17 10:39:30;;;;;;;6.32;2.95;;;;;;;21.37;62.34;102051.22;5053834;28;20117;-37
2022/05/17 10:41:56;;;;;;;6.10;2.80;;;;;;;21.23;62.21;102055.59;5053826;28;20347;-37
2022/05/17 10:44:22;;;;;;;5.10;2.90;;;;;;;21.17;62.09;102046.50;5052718;28;20029;-37
2022/05/17 10:47:03;;;;;;;8.52;3.15;;;;;;;21.17;62.72;102052.00;5053076;28;20125;-37
2022/05/17 10:49:50;;;;;;;5.53;2.97;;;;;;;21.15;62.77;102037.69;5052905;28;20371;-37
2022/05/17 10:52:53;;;;;;;8.55;3.20;;;;;;;21.31;62.01;102052.31;5052964;28;20074;-37
2022/05/17 10:55:37;;;;;;;7.00;2.92;;;;;;;21.27;61.50;102040.19;5053054;28;20488;-37
2022/05/17 10:58:44;;;;;;;6.63;3.10;;;;;;;21.32;62.39;102042.97;5053435;28;20032;-37
2022/05/17 11:01:21;;;;;;;7.20;2.97;;;;;;;21.38;60.95;102046.56;5053756;28;20108;-37
2022/05/17 11:03:58;;;;;;;4.97;3.15;;;;;;;21.46;62.00;102043.25;5053131;28;20322;-37
2022/05/17 11:06:34;;;;;;;7.90;3.22;;;;;;;21.66;62.40;102045.16;5052836;28;20036;-37
2022/05/17 11:09:43;;;;;;;7.25;3.55;;;;;;;21.87;60.78;102038.56;5052898;28;20103;-37
2022/05/17 11:12:12;;;;;;;5.50;3.65;;;;;;;22.06;61.36;102033.28;5052755;28;20033;-37
2022/05/17 11:14:53;;;;;;;5.82;3.55;;;;;;;22.27;60.94;102018.34;5052353;28;20104;-37
2022/05/17 11:17:44;;;;;;;10.88;4.65;;;;;;;22.53;59.38;102029.25;5052872;28;20045;-37
2022/05/17 11:20:31;;;;;;;7.10;4.53;;;;;;;22.66;57.88;102017.63;5052979;28;20025;-37
2022/05/17 11:23:11;;;;;;;7.10;4.15;;;;;;;22.81;58.99;102011.19;5054285;28;20457;-37
2022/05/17 11:26:09;;;;;;;8.95;4.93;;;;;;;23.03;59.61;102005.28;5057358;28;20032;-37
2022/05/17 11:28:59;;;;;;;6.95;4.57;;;;;;;23.07;59.01;102007.19;4995559;28;20046;-37
2022/05/17 11:31:49;;;;;;;9.70;5.60;;;;;;;23.28;57.93;101994.06;4995559;28;20457;-37
2022/05/17 11:34:30;;;;;;;6.10;4.90;;;;;;;23.47;58.43;101996.09;4995573;28;20038;-37
2022/05/17 11:37:01;;;;;;;7.60;5.18;;;;;;;23.56;57.85;101975.03;4995544;28;20030;-37
2022/05/17 11:39:32;;;;;;;8.02;4.45;;;;;;;23.88;56.53;101982.75;4995048;28;20046;-37
2022/05/17 11:42:07;;;;;;;8.68;4.75;;;;;;;24.02;54.79;101978.16;4994823;28;20034;-37
2022/05/17 11:44:54;;;;;;;9.05;4.93;;;;;;;24.26;55.50;101985.63;4994775;28;20046;-37
2022/05/17 11:47:37;;;;;;;9.13;4.78;;;;;;;24.35;53.76;101981.03;4994684;28;20097;-37
2022/05/17 11:50:14;;;;;;;8.10;4.30;;;;;;;24.43;55.35;101966.59;4995322;28;20030;-37
2022/05/17 11:52:40;;;;;;;7.40;4.63;;;;;;;24.45;55.30;101949.72;4994941;28;20034;-37
2022/05/17 11:55:07;;;;;;;10.93;4.43;;;;;;;24.49;54.53;101956.28;4994564;28;20045;-37
2022/05/17 11:57:37;;;;;;;9.65;4.93;;;;;;;24.59;54.42;101964.44;4994800;28;20051;-37
2022/05/17 12:00:26;;;;;;;9.38;4.60;;;;;;;24.70;55.13;101959.59;4994487;28;20034;-37
2022/05/17 12:02:53;;;;;;;10.18;4.43;;;;;;;24.74;53.03;101941.25;4994424;28;20061;-37
2022/05/17 12:05:47;;;;;;;8.02;3.97;;;;;;;24.95;53.72;101950.91;5054267;28;20122;-37
2022/05/17 12:08:31;;;;;;;5.88;2.75;;;;;;;24.69;51.41;101936.63;5056165;28;20033;-36
2022/05/17 12:11:14;;;;;;;6.13;3.88;;;;;;;24.78;52.33;101942.31;5055549;28;20115;-36